createdAt,value
2022-11-22T00:00:35.028Z,19.87
2022-11-22T00:03:01.714Z,14.80
2022-11-22T00:05:28.329Z,14.33
2022-11-22T00:07:54.952Z,15.70
2022-11-22T00:10:21.563Z,7.90
2022-11-22T00:12:49.324Z,11.00
2022-11-22T00:15:16.056Z,10.17
2022-11-22T00:17:42.717Z,11.27
2022-11-22T00:20:11.814Z,9.53
2022-11-22T00:22:43.990Z,11.03
2022-11-22T00:25:11.318Z,9.87
2022-11-22T00:27:37.942Z,9.83
2022-11-22T00:30:05.847Z,10.07
2022-11-22T00:32:32.452Z,9.80
2022-11-22T00:34:59.223Z,9.37
2022-11-22T00:37:25.863Z,10.40
2022-11-22T00:39:52.543Z,12.47
2022-11-22T00:42:19.193Z,12.20
2022-11-22T00:44:45.776Z,11.70
2022-11-22T00:47:12.403Z,10.03
2022-11-22T00:49:38.964Z,8.10
2022-11-22T00:52:05.691Z,9.93
2022-11-22T00:54:32.246Z,12.33
2022-11-22T00:56:58.938Z,10.50
2022-11-22T00:59:25.518Z,8.90
2022-11-22T01:01:52.319Z,9.90
2022-11-22T01:04:18.953Z,9.67
2022-11-22T01:06:45.629Z,7.90
2022-11-22T01:09:18.122Z,10.47
2022-11-22T01:11:44.768Z,7.90
2022-11-22T01:14:11.680Z,8.50
2022-11-22T01:16:38.615Z,8.70
2022-11-22T01:19:05.205Z,9.33
2022-11-22T01:21:31.805Z,8.03
2022-11-22T01:23:58.453Z,9.50
2022-11-22T01:26:25.044Z,8.20
2022-11-22T01:28:51.600Z,11.67
2022-11-22T01:31:18.266Z,7.60
2022-11-22T01:33:45.220Z,8.70
2022-11-22T01:36:11.866Z,9.13
2022-11-22T01:38:38.502Z,8.70
2022-11-22T01:41:05.093Z,8.40
2022-11-22T01:43:31.769Z,7.23
2022-11-22T01:46:02.603Z,7.67
2022-11-22T01:48:38.366Z,7.73
2022-11-22T01:51:32.751Z,9.27
2022-11-22T01:54:06.476Z,7.53
2022-11-22T01:56:35.689Z,9.03
2022-11-22T01:59:07.993Z,7.40
2022-11-22T02:01:35.602Z,9.70
2022-11-22T02:04:05.127Z,8.90
2022-11-22T02:06:42.165Z,17.07
2022-11-22T02:09:12.935Z,15.23
2022-11-22T02:11:47.787Z,17.73
2022-11-22T02:14:16.739Z,14.13
2022-11-22T02:16:44.132Z,13.83
2022-11-22T02:19:19.667Z,18.13
2022-11-22T02:21:51.760Z,14.57
2022-11-22T02:24:28.640Z,12.60
2022-11-22T02:26:55.218Z,10.27
2022-11-22T02:29:22.280Z,9.00
2022-11-22T02:31:48.854Z,12.80
2022-11-22T02:34:15.492Z,9.57
2022-11-22T02:36:53.574Z,9.07
2022-11-22T02:39:25.357Z,7.50
2022-11-22T02:41:53.503Z,8.53
2022-11-22T02:44:21.291Z,8.53
2022-11-22T02:46:53.775Z,8.20
2022-11-22T02:49:23.291Z,8.00
2022-11-22T02:51:51.214Z,8.63
2022-11-22T02:54:18.286Z,7.13
2022-11-22T02:56:45.617Z,7.70
2022-11-22T02:59:12.425Z,6.87
2022-11-22T03:01:39.540Z,8.17
2022-11-22T03:04:06.349Z,6.77
2022-11-22T03:06:32.959Z,7.50
2022-11-22T03:08:59.518Z,7.50
2022-11-22T03:11:26.191Z,8.63
2022-11-22T03:13:52.761Z,7.53
2022-11-22T03:16:19.386Z,6.27
2022-11-22T03:18:46.192Z,6.13
2022-11-22T03:21:12.815Z,7.70
2022-11-22T03:23:39.390Z,9.20
2022-11-22T03:26:11.002Z,6.43
2022-11-22T03:28:37.865Z,6.17
2022-11-22T03:31:08.394Z,6.13
2022-11-22T03:33:35.758Z,6.63
2022-11-22T03:36:03.226Z,10.30
2022-11-22T03:38:29.968Z,9.70
2022-11-22T03:40:56.581Z,7.67
2022-11-22T03:43:23.638Z,6.10
2022-11-22T03:45:50.201Z,7.97
2022-11-22T03:48:16.763Z,7.77
2022-11-22T03:50:43.606Z,8.20
2022-11-22T03:53:10.574Z,6.53
2022-11-22T03:55:37.582Z,7.57
2022-11-22T03:58:04.384Z,7.70
2022-11-22T04:00:32.091Z,7.23
2022-11-22T04:02:58.682Z,6.70
2022-11-22T04:05:25.364Z,6.00
2022-11-22T04:07:56.120Z,6.03
2022-11-22T04:10:26.622Z,10.30
2022-11-22T04:12:58.235Z,10.37
2022-11-22T04:15:26.047Z,7.43
2022-11-22T04:17:52.997Z,9.77
2022-11-22T04:20:46.718Z,11.27
2022-11-22T04:23:19.090Z,6.97
2022-11-22T04:25:51.852Z,7.20
2022-11-22T04:28:40.482Z,7.93
2022-11-22T04:31:29.149Z,8.50
2022-11-22T04:33:55.758Z,7.77
2022-11-22T04:36:22.367Z,5.20
2022-11-22T04:38:48.915Z,13.53
2022-11-22T04:41:15.498Z,7.83
2022-11-22T04:44:00.606Z,7.00
2022-11-22T04:46:27.192Z,8.33
2022-11-22T04:48:53.763Z,8.67
2022-11-22T04:51:38.936Z,7.80
2022-11-22T04:54:05.583Z,8.93
2022-11-22T04:56:32.155Z,8.13
2022-11-22T04:58:58.758Z,7.77
2022-11-22T05:01:25.364Z,9.03
2022-11-22T05:03:51.985Z,7.63
2022-11-22T05:06:18.680Z,8.73
2022-11-22T05:08:45.321Z,8.00
2022-11-22T05:11:12.071Z,8.73
2022-11-22T05:13:40.960Z,7.70
2022-11-22T05:16:10.684Z,8.13
2022-11-22T05:18:37.529Z,8.20
2022-11-22T05:21:09.800Z,8.63
2022-11-22T05:23:55.171Z,10.50
2022-11-22T05:26:23.932Z,10.47
2022-11-22T05:28:51.092Z,13.83
2022-11-22T05:31:27.901Z,11.03
2022-11-22T05:33:56.561Z,8.47
2022-11-22T05:36:23.740Z,10.43
2022-11-22T05:38:51.179Z,10.07
2022-11-22T05:41:18.232Z,9.40
2022-11-22T05:43:44.906Z,9.57
2022-11-22T05:46:19.589Z,9.70
2022-11-22T05:48:50.404Z,11.17
2022-11-22T05:51:19.203Z,11.93
2022-11-22T05:53:46.267Z,17.63
2022-11-22T05:56:24.048Z,16.53
2022-11-22T05:58:51.463Z,11.10
2022-11-22T06:01:20.745Z,10.80
2022-11-22T06:03:48.520Z,9.23
2022-11-22T06:06:15.977Z,9.67
2022-11-22T06:08:48.621Z,10.50
2022-11-22T06:11:18.531Z,11.07
2022-11-22T06:13:46.804Z,9.10
2022-11-22T06:16:14.555Z,8.63
2022-11-22T06:18:41.528Z,11.00
2022-11-22T06:21:12.112Z,9.80
2022-11-22T06:23:38.762Z,9.27
2022-11-22T06:26:07.903Z,11.23
2022-11-22T06:28:36.296Z,8.00
2022-11-22T06:31:04.308Z,7.90
2022-11-22T06:33:31.326Z,7.60
2022-11-22T06:36:15.780Z,9.40
2022-11-22T06:38:43.622Z,10.43
2022-11-22T06:41:12.772Z,8.77
2022-11-22T06:43:45.293Z,8.57
2022-11-22T06:46:15.692Z,10.77
2022-11-22T06:48:43.232Z,8.57
2022-11-22T06:51:16.864Z,10.10
2022-11-22T06:53:48.492Z,8.33
2022-11-22T06:56:20.576Z,15.17
2022-11-22T06:58:48.915Z,16.03
2022-11-22T07:01:27.738Z,8.87
2022-11-22T07:03:59.145Z,9.77
2022-11-22T07:06:28.845Z,8.77
2022-11-22T07:08:55.902Z,9.60
2022-11-22T07:11:28.107Z,12.83
2022-11-22T07:14:01.702Z,11.00
2022-11-22T07:16:32.452Z,9.20
2022-11-22T07:19:00.582Z,10.47
2022-11-22T07:21:27.432Z,8.33
2022-11-22T07:23:55.628Z,10.93
2022-11-22T07:26:24.498Z,8.30
2022-11-22T07:28:51.680Z,8.37
2022-11-22T07:31:18.781Z,7.83
2022-11-22T07:33:46.973Z,11.40
2022-11-22T07:36:16.302Z,8.67
2022-11-22T07:38:43.102Z,11.03
2022-11-22T07:41:10.227Z,9.30
2022-11-22T07:43:37.122Z,10.77
2022-11-22T07:46:06.469Z,8.27
2022-11-22T07:48:33.074Z,12.60
2022-11-22T07:51:07.050Z,18.60
2022-11-22T07:53:35.029Z,22.30
2022-11-22T07:56:03.215Z,10.30
2022-11-22T07:58:30.150Z,25.83
2022-11-22T08:00:56.905Z,13.03
2022-11-22T08:03:28.673Z,11.40
2022-11-22T08:06:04.046Z,9.60
2022-11-22T08:08:31.413Z,12.10
2022-11-22T08:10:58.313Z,9.43
2022-11-22T08:13:25.285Z,8.73
2022-11-22T08:15:54.672Z,10.77
2022-11-22T08:18:22.375Z,11.10
2022-11-22T08:20:49.055Z,11.80
2022-11-22T08:23:15.644Z,10.10
2022-11-22T08:25:42.253Z,10.80
2022-11-22T08:28:08.845Z,13.37
2022-11-22T08:30:35.444Z,9.43
2022-11-22T08:33:02.023Z,10.83
2022-11-22T08:35:29.071Z,11.70
2022-11-22T08:37:58.760Z,9.63
2022-11-22T08:40:25.410Z,11.70
2022-11-22T08:42:54.533Z,11.37
2022-11-22T08:45:21.115Z,12.03
2022-11-22T08:47:48.993Z,11.17
2022-11-22T08:50:17.160Z,15.87
2022-11-22T08:52:43.758Z,14.33
2022-11-22T08:55:10.334Z,17.63
2022-11-22T08:57:36.932Z,18.47
2022-11-22T09:00:05.897Z,14.00
2022-11-22T09:02:32.478Z,17.33
2022-11-22T09:04:59.256Z,15.20
2022-11-22T09:10:12.628Z,14.13
2022-11-22T09:12:43.642Z,11.97
2022-11-22T09:15:10.729Z,9.60
2022-11-22T09:17:37.470Z,12.13
2022-11-22T09:20:04.763Z,10.20
2022-11-22T09:22:32.168Z,11.77
2022-11-22T09:24:58.703Z,14.23
2022-11-22T09:27:25.295Z,15.43
2022-11-22T09:29:51.928Z,11.63
2022-11-22T09:32:18.595Z,12.67
2022-11-22T09:34:45.149Z,11.77
2022-11-22T09:37:11.764Z,13.83
2022-11-22T09:39:38.643Z,12.57
2022-11-22T09:42:44.685Z,13.73
2022-11-22T09:45:38.765Z,16.10
2022-11-22T09:48:11.289Z,17.07
2022-11-22T09:51:06.790Z,13.73
2022-11-22T09:53:40.671Z,15.17
2022-11-22T09:56:16.599Z,15.63
2022-11-22T09:58:47.677Z,10.83
2022-11-22T10:01:27.663Z,14.33
2022-11-22T10:04:10.239Z,15.13
2022-11-22T10:06:41.147Z,13.27
2022-11-22T10:09:45.068Z,14.63
2022-11-22T10:12:17.156Z,13.20
2022-11-22T10:15:07.104Z,11.30
2022-11-22T10:17:56.496Z,11.37
2022-11-22T10:20:26.194Z,12.80
2022-11-22T10:22:53.456Z,13.93
2022-11-22T10:25:35.722Z,13.13
2022-11-22T10:28:38.427Z,14.20
2022-11-22T10:31:14.620Z,13.60
2022-11-22T10:34:15.647Z,13.90
2022-11-22T10:36:50.107Z,12.17
2022-11-22T10:39:40.023Z,13.63
2022-11-22T10:42:26.860Z,14.70
2022-11-22T10:44:53.371Z,11.60
2022-11-22T10:47:19.932Z,15.87
2022-11-22T10:49:52.689Z,11.03
2022-11-22T10:52:40.771Z,11.80
2022-11-22T10:55:19.540Z,11.50
2022-11-22T10:58:13.546Z,18.40
2022-11-22T11:00:46.855Z,18.60
2022-11-22T11:03:32.442Z,14.90
2022-11-22T11:06:38.099Z,19.73
2022-11-22T11:12:05.132Z,14.40
2022-11-22T11:14:37.897Z,13.93
2022-11-22T11:17:06.140Z,15.37
2022-11-22T11:19:41.740Z,18.83
2022-11-22T11:22:08.253Z,17.67
2022-11-22T11:24:38.453Z,29.97
2022-11-22T11:27:06.027Z,20.37
2022-11-22T11:29:41.574Z,19.43
2022-11-22T11:32:21.914Z,16.47
2022-11-22T11:35:03.864Z,19.53
2022-11-22T11:37:38.756Z,16.87
2022-11-22T11:40:24.837Z,15.43
2022-11-22T11:43:21.275Z,13.20
2022-11-22T11:45:48.050Z,17.40
2022-11-22T11:48:41.251Z,16.67
2022-11-22T11:51:11.660Z,18.73
2022-11-22T11:53:39.964Z,16.40
2022-11-22T11:56:19.768Z,20.30
2022-11-22T11:58:54.959Z,18.30
2022-11-22T12:01:23.050Z,16.93
2022-11-22T12:03:57.799Z,15.27
2022-11-22T12:06:32.519Z,18.30
2022-11-22T12:09:00.861Z,15.90
2022-11-22T12:11:38.703Z,18.10
2022-11-22T12:14:30.401Z,19.33
2022-11-22T12:17:05.744Z,17.00
2022-11-22T12:20:11.969Z,18.30
2022-11-22T12:23:13.055Z,19.70
2022-11-22T12:25:40.547Z,15.60
2022-11-22T12:28:28.797Z,14.00
2022-11-22T12:30:55.337Z,17.90
2022-11-22T12:33:34.960Z,17.10
2022-11-22T12:36:04.824Z,20.63
2022-11-22T12:38:40.959Z,18.10
2022-11-22T12:41:13.422Z,20.60
2022-11-22T12:43:46.413Z,22.63
2022-11-22T12:46:28.750Z,20.13
2022-11-22T12:49:05.211Z,21.20
2022-11-22T12:51:43.233Z,20.90
2022-11-22T12:54:16.218Z,20.60
2022-11-22T12:56:49.093Z,19.43
2022-11-22T12:59:25.181Z,16.73
2022-11-22T13:02:10.232Z,19.07
2022-11-22T13:05:09.826Z,15.73
2022-11-22T13:07:36.457Z,18.33
2022-11-22T13:10:11.867Z,17.80
2022-11-22T13:12:41.285Z,21.83
2022-11-22T13:15:13.479Z,22.30
2022-11-22T13:17:40.514Z,20.60
2022-11-22T13:20:14.755Z,24.80
2022-11-22T13:23:19.276Z,24.37
2022-11-22T13:26:19.475Z,20.83
2022-11-22T13:28:47.984Z,19.00
2022-11-22T13:31:18.451Z,18.07
2022-11-22T13:33:57.559Z,14.93
2022-11-22T13:36:27.065Z,19.30
2022-11-22T13:38:59.757Z,26.97
2022-11-22T13:41:36.508Z,35.40
2022-11-22T13:44:21.930Z,17.23
2022-11-22T13:47:12.517Z,22.80
2022-11-22T13:49:48.846Z,26.83
2022-11-22T13:52:15.812Z,19.30
2022-11-22T13:54:48.193Z,24.50
2022-11-22T13:57:31.686Z,21.87
2022-11-22T14:00:16.802Z,37.60
2022-11-22T14:02:52.103Z,34.03
2022-11-22T14:05:41.963Z,25.43
2022-11-22T14:08:28.531Z,27.53
2022-11-22T14:10:55.150Z,19.63
2022-11-22T14:13:30.782Z,18.50
2022-11-22T14:16:25.155Z,20.00
2022-11-22T14:19:11.153Z,23.10
2022-11-22T14:22:16.316Z,20.43
2022-11-22T14:25:13.879Z,22.03
2022-11-22T14:27:56.911Z,25.83
2022-11-22T14:30:39.422Z,24.60
2022-11-22T14:33:21.394Z,29.60
2022-11-22T14:36:06.346Z,26.10
2022-11-22T14:38:35.561Z,25.43
2022-11-22T14:41:41.003Z,28.07
2022-11-22T14:44:16.615Z,36.53
2022-11-22T14:46:53.827Z,25.73
2022-11-22T14:49:44.003Z,22.67
2022-11-22T14:52:24.580Z,18.70
2022-11-22T14:55:06.052Z,23.00
2022-11-22T14:57:36.483Z,23.37
2022-11-22T15:00:08.759Z,30.03
2022-11-22T15:02:57.228Z,31.53
2022-11-22T15:09:13.289Z,30.47
2022-11-22T15:09:13.539Z,23.80
2022-11-22T15:11:41.884Z,22.47
2022-11-22T15:14:27.030Z,25.10
2022-11-22T15:59:43.718Z,29.77
2022-11-22T16:02:16.017Z,31.10
2022-11-22T16:06:09.702Z,22.60
2022-11-22T16:07:49.044Z,24.60
2022-11-22T16:10:20.434Z,29.03
2022-11-22T16:12:47.370Z,22.53
2022-11-22T16:15:26.061Z,23.07
2022-11-22T16:17:59.703Z,18.87
2022-11-22T16:20:32.043Z,23.40
2022-11-22T16:23:11.787Z,23.23
2022-11-22T16:25:40.891Z,22.87
2022-11-22T16:28:37.768Z,24.23
2022-11-22T16:31:16.773Z,18.83
2022-11-22T16:33:44.534Z,20.40
2022-11-22T16:36:14.158Z,22.23
2022-11-22T16:38:41.923Z,21.87
2022-11-22T16:41:13.598Z,25.50
2022-11-22T16:43:40.231Z,19.53
2022-11-22T16:46:06.980Z,25.07
2022-11-22T16:48:33.973Z,24.23
2022-11-22T16:51:06.987Z,23.17
2022-11-22T16:53:47.958Z,24.60
2022-11-22T16:56:20.355Z,18.73
2022-11-22T16:58:51.425Z,19.33
2022-11-22T17:01:21.631Z,23.03
2022-11-22T17:03:50.684Z,18.80
2022-11-22T17:06:20.353Z,20.67
2022-11-22T17:08:48.537Z,19.23
2022-11-22T17:11:17.215Z,21.03
2022-11-22T17:13:43.978Z,20.90
2022-11-22T17:16:11.806Z,24.77
2022-11-22T17:18:39.394Z,21.07
2022-11-22T17:21:20.864Z,27.53
2022-11-22T17:23:48.357Z,24.10
2022-11-22T17:26:15.186Z,16.50
2022-11-22T17:28:41.815Z,20.73
2022-11-22T17:31:16.864Z,29.07
2022-11-22T17:33:43.962Z,19.23
2022-11-22T17:36:24.277Z,21.70
2022-11-22T17:38:50.997Z,20.20
2022-11-22T17:41:17.673Z,20.57
2022-11-22T17:43:44.495Z,19.53
2022-11-22T17:46:11.702Z,22.30
2022-11-22T17:48:38.628Z,22.60
2022-11-22T17:51:09.782Z,28.20
2022-11-22T17:53:36.408Z,23.50
2022-11-22T17:56:10.577Z,23.20
2022-11-22T17:58:38.551Z,27.67
2022-11-22T18:01:14.035Z,18.80
2022-11-22T18:03:41.811Z,18.90
2022-11-22T18:06:10.367Z,18.50
2022-11-22T18:08:38.804Z,17.67
2022-11-22T18:11:07.732Z,16.83
2022-11-22T18:13:37.459Z,18.40
2022-11-22T18:16:07.760Z,25.47
2022-11-22T18:21:24.460Z,29.50
2022-11-22T18:23:52.367Z,38.67
2022-11-22T18:31:54.679Z,20.63
2022-11-22T18:34:22.642Z,24.73
2022-11-22T18:36:55.269Z,25.07
2022-11-22T18:39:23.028Z,27.73
2022-11-22T18:41:49.687Z,35.40
2022-11-22T18:44:16.469Z,37.73
2022-11-22T18:46:43.607Z,33.00
2022-11-22T18:49:10.490Z,37.23
2022-11-22T18:51:37.498Z,29.53
2022-11-22T18:54:06.328Z,25.27
2022-11-22T18:56:37.835Z,23.87
2022-11-22T18:59:06.322Z,20.33
2022-11-22T19:01:34.659Z,21.43
2022-11-22T19:04:02.952Z,23.57
2022-11-22T19:06:30.184Z,23.30
2022-11-22T19:08:57.713Z,23.10
2022-11-22T19:11:24.825Z,27.23
2022-11-22T19:13:51.697Z,29.30
2022-11-22T19:16:22.438Z,23.00
2022-11-22T19:18:49.902Z,28.57
2022-11-22T19:21:21.873Z,26.53
2022-11-22T19:23:52.508Z,22.53
2022-11-22T19:26:21.976Z,24.07
2022-11-22T19:28:49.698Z,31.63
2022-11-22T19:31:21.236Z,24.70
2022-11-22T19:33:48.487Z,34.00
2022-11-22T19:36:20.958Z,27.07
2022-11-22T19:38:48.424Z,29.93
2022-11-22T19:41:20.431Z,35.00
2022-11-22T19:43:48.035Z,39.07
2022-11-22T19:46:15.384Z,35.97
2022-11-22T19:48:46.918Z,32.30
2022-11-22T19:51:15.338Z,29.53
2022-11-22T19:53:42.735Z,32.13
2022-11-22T19:56:13.958Z,32.83
2022-11-22T19:58:40.717Z,41.47
2022-11-22T20:01:09.333Z,27.60
2022-11-22T20:03:40.538Z,26.70
2022-11-22T20:06:09.239Z,31.40
2022-11-22T20:08:36.360Z,30.80
2022-11-22T20:11:08.988Z,32.27
2022-11-22T20:13:37.829Z,30.80
2022-11-22T20:16:10.276Z,24.53
2022-11-22T20:18:37.943Z,24.57
2022-11-22T20:21:06.508Z,27.20
2022-11-22T20:23:36.094Z,27.47
2022-11-22T20:26:10.034Z,29.87
2022-11-22T20:28:38.157Z,25.23
2022-11-22T20:31:18.465Z,25.17
2022-11-22T20:33:48.167Z,25.17
2022-11-22T20:36:17.841Z,33.53
2022-11-22T20:38:45.987Z,23.97
2022-11-22T20:41:13.771Z,27.77
2022-11-22T20:43:41.083Z,25.90
2022-11-22T20:46:14.037Z,29.30
2022-11-22T20:48:42.479Z,25.20
2022-11-22T20:51:18.731Z,29.00
2022-11-22T20:53:45.972Z,26.60
2022-11-22T20:56:14.038Z,26.57
2022-11-22T20:58:41.452Z,24.40
2022-11-22T21:01:19.259Z,26.83
2022-11-22T21:03:46.760Z,27.90
2022-11-22T21:06:14.076Z,27.70
2022-11-22T21:08:41.480Z,26.70
2022-11-22T21:11:18.562Z,28.27
2022-11-22T21:13:45.778Z,23.03
2022-11-22T21:16:24.234Z,32.50
2022-11-22T21:19:04.779Z,27.97
2022-11-22T21:21:33.259Z,24.87
2022-11-22T21:24:01.828Z,24.63
2022-11-22T21:26:29.517Z,28.97
2022-11-22T21:28:56.485Z,24.60
2022-11-22T21:31:24.080Z,28.23
2022-11-22T21:33:52.008Z,30.23
2022-11-22T21:36:19.864Z,25.70
2022-11-22T21:38:46.848Z,24.57
2022-11-22T21:41:39.480Z,24.13
2022-11-22T21:44:03.452Z,24.33
2022-11-22T21:46:30.451Z,23.90
2022-11-22T21:48:57.149Z,29.30
2022-11-22T21:51:26.325Z,36.83
2022-11-22T21:54:01.279Z,32.93
2022-11-22T21:56:28.515Z,29.53
2022-11-22T21:58:55.289Z,25.60
2022-11-22T22:01:22.767Z,25.00
2022-11-22T22:03:49.968Z,29.03
2022-11-22T22:06:16.797Z,26.93
2022-11-22T22:08:43.417Z,29.53
2022-11-22T22:11:10.127Z,30.80
2022-11-22T22:13:36.958Z,26.47
2022-11-22T22:16:12.765Z,30.97
2022-11-22T22:18:39.793Z,37.43
2022-11-22T22:21:08.272Z,29.90
2022-11-22T22:23:36.559Z,29.20
2022-11-22T22:26:08.206Z,24.93
2022-11-22T22:28:36.585Z,23.63
2022-11-22T22:31:06.182Z,25.53
2022-11-22T22:33:33.883Z,34.83
2022-11-22T22:36:00.863Z,41.10
2022-11-22T22:38:30.010Z,36.47
2022-11-22T22:40:58.982Z,37.87
2022-11-22T22:43:30.347Z,42.30
2022-11-22T22:46:08.363Z,32.00
2022-11-22T22:48:35.011Z,34.63
2022-11-22T22:51:10.508Z,39.07
2022-11-22T22:53:37.326Z,40.00
2022-11-22T22:56:05.250Z,33.87
2022-11-22T22:58:31.869Z,30.97
2022-11-22T23:01:26.270Z,29.17
2022-11-22T23:04:00.960Z,25.43
2022-11-22T23:06:35.295Z,32.33
2022-11-22T23:09:04.678Z,23.60
2022-11-22T23:11:51.075Z,29.47
2022-11-22T23:14:26.309Z,23.80
2022-11-22T23:16:57.335Z,22.73
2022-11-22T23:19:25.454Z,26.90
2022-11-22T23:21:52.081Z,28.97
2022-11-22T23:24:18.736Z,36.27
2022-11-22T23:26:45.353Z,35.93
2022-11-22T23:29:12.414Z,35.23
2022-11-22T23:31:39.140Z,31.00
2022-11-22T23:34:05.857Z,35.83
2022-11-22T23:36:36.039Z,40.50
2022-11-22T23:39:04.275Z,28.37
2022-11-22T23:41:30.923Z,28.60
2022-11-22T23:43:57.534Z,33.60
2022-11-22T23:46:27.412Z,28.80
2022-11-22T23:48:58.929Z,28.57
2022-11-22T23:51:27.788Z,30.63
2022-11-22T23:54:00.078Z,27.33
2022-11-22T23:56:28.121Z,29.63
2022-11-22T23:58:54.833Z,26.33
